Time;durP1;ratioP1;P1;durP2;ratioP2;P2;SDS_P1;SDS_P2;PMS_P1;PMS_P2;Temp;Humidity;BMP_temperature;BMP_pressure;BME280_temperature;BME280_humidity;BME280_pressure;Samples;Min_cycle;Max_cycle;Signal;HPM_P1;HPM_P2
2024/01/14 00:00:10;;;;;;;3.57;2.93;;;;;-3.50;95917.00;;;;5054636;28;20192;-62
2024/01/14 00:02:38;;;;;;;3.53;3.23;;;;;-3.60;95908.00;;;;5053180;28;20216;-62
2024/01/14 00:05:06;;;;;;;4.40;2.67;;;;;-3.50;95905.00;;;;5054648;28;20533;-62
2024/01/14 00:07:37;;;;;;;4.43;3.80;;;;;-3.70;95906.00;;;;5054674;28;20663;-62
2024/01/14 00:10:05;;;;;;;3.10;2.90;;;;;-3.70;95898.00;;;;5054410;28;20211;-61
2024/01/14 00:12:32;;;;;;;6.97;4.60;;;;;-3.90;95892.00;;;;5054167;28;20243;-62
2024/01/14 00:15:00;;;;;;;14.37;4.70;;;;;-4.10;95897.00;;;;5054600;28;20218;-61
2024/01/14 00:17:31;;;;;;;8.93;5.63;;;;;-3.90;95893.00;;;;5054394;28;20201;-61
2024/01/14 00:19:59;;;;;;;4.53;4.00;;;;;-3.90;95892.00;;;;5054265;28;20196;-61
2024/01/14 00:22:26;;;;;;;4.07;3.53;;;;;-3.80;95890.00;;;;5054290;28;20550;-61
2024/01/14 00:24:54;;;;;;;8.47;5.17;;;;;-3.80;95883.00;;;;5054033;28;20188;-61
2024/01/14 00:27:21;;;;;;;7.33;5.67;;;;;-3.60;95878.00;;;;5052697;28;20205;-62
2024/01/14 00:29:49;;;;;;;7.23;4.43;;;;;-3.50;95868.00;;;;5054418;28;20195;-62
2024/01/14 00:32:17;;;;;;;3.00;2.70;;;;;-3.60;95858.00;;;;5053903;28;20695;-62
2024/01/14 00:34:46;;;;;;;5.07;4.03;;;;;-3.70;95859.00;;;;5054047;28;20218;-62
2024/01/14 00:37:13;;;;;;;7.90;4.90;;;;;-3.60;95854.00;;;;5052716;28;20200;-62
2024/01/14 00:39:41;;;;;;;4.20;3.43;;;;;-3.60;95851.00;;;;5053962;28;20198;-62
2024/01/14 00:42:08;;;;;;;6.20;4.70;;;;;-3.50;95847.00;;;;5053760;28;20237;-61
2024/01/14 00:44:36;;;;;;;5.83;4.40;;;;;-3.50;95840.00;;;;5054065;28;20195;-61
2024/01/14 00:47:04;;;;;;;10.53;6.67;;;;;-3.60;95840.00;;;;5053773;28;20191;-61
2024/01/14 00:49:31;;;;;;;5.17;3.57;;;;;-3.50;95838.00;;;;5054015;28;20192;-61
2024/01/14 00:52:01;;;;;;;4.63;3.07;;;;;-3.60;95839.00;;;;5053793;28;20215;-61
2024/01/14 00:54:28;;;;;;;3.17;2.93;;;;;-3.60;95837.00;;;;5053523;28;20219;-61
2024/01/14 00:56:56;;;;;;;4.00;3.00;;;;;-3.50;95844.00;;;;5053770;28;20187;-61
2024/01/14 00:59:23;;;;;;;7.00;4.23;;;;;-3.40;95837.00;;;;5053774;28;20660;-61
2024/01/14 01:01:51;;;;;;;3.00;2.77;;;;;-3.50;95823.00;;;;5053784;28;20613;-62
2024/01/14 01:04:18;;;;;;;8.07;5.23;;;;;-3.40;95825.00;;;;5053398;28;20189;-61
2024/01/14 01:06:46;;;;;;;3.70;3.50;;;;;-3.40;95826.00;;;;5053490;28;20192;-62
2024/01/14 01:09:14;;;;;;;6.40;5.23;;;;;-3.40;95821.00;;;;5053635;28;20192;-62
2024/01/14 01:11:42;;;;;;;9.10;5.03;;;;;-3.40;95822.00;;;;5053430;28;20274;-62
2024/01/14 01:14:09;;;;;;;5.90;4.03;;;;;-3.40;95809.00;;;;5053243;28;20192;-61
2024/01/14 01:16:37;;;;;;;4.70;4.30;;;;;-3.50;95807.00;;;;5053377;28;20556;-61
2024/01/14 01:19:04;;;;;;;5.80;4.07;;;;;-3.40;95798.00;;;;5053325;28;20200;-61
2024/01/14 01:21:32;;;;;;;7.83;3.10;;;;;-3.40;95800.00;;;;5053590;28;20192;-61
2024/01/14 01:23:59;;;;;;;5.93;4.40;;;;;-3.30;95800.00;;;;5053108;28;20192;-61
2024/01/14 01:26:28;;;;;;;4.87;4.40;;;;;-3.50;95793.00;;;;5053211;28;20184;-61
2024/01/14 01:28:55;;;;;;;6.43;5.83;;;;;-3.60;95797.00;;;;5053061;28;20271;-61
2024/01/14 01:31:23;;;;;;;7.07;4.93;;;;;-3.60;95794.00;;;;5053196;28;20569;-62
2024/01/14 01:33:50;;;;;;;6.30;4.90;;;;;-3.70;95799.00;;;;5053786;28;20599;-61
2024/01/14 01:36:18;;;;;;;4.23;3.37;;;;;-3.50;95788.00;;;;5052920;28;20230;-61
2024/01/14 01:38:45;;;;;;;5.17;4.67;;;;;-3.60;95783.00;;;;5053089;28;20681;-61
2024/01/14 01:41:12;;;;;;;8.83;4.70;;;;;-3.80;95773.00;;;;5052777;28;20214;-62
2024/01/14 01:43:41;;;;;;;4.07;3.43;;;;;-3.80;95769.00;;;;5053078;28;20310;-61
2024/01/14 01:46:09;;;;;;;11.07;4.63;;;;;-3.70;95765.00;;;;5052801;28;20658;-62
2024/01/14 01:48:37;;;;;;;4.37;4.07;;;;;-3.70;95750.00;;;;5052995;28;20663;-61
2024/01/14 01:51:05;;;;;;;3.87;3.57;;;;;-3.70;95761.00;;;;5053233;28;20291;-61
2024/01/14 01:53:33;;;;;;;7.07;4.30;;;;;-3.60;95765.00;;;;5052792;28;20717;-61
2024/01/14 01:56:01;;;;;;;4.73;3.80;;;;;-3.50;95775.00;;;;5053065;28;20211;-61
2024/01/14 01:58:29;;;;;;;8.33;4.37;;;;;-3.50;95753.00;;;;5055388;28;20195;-61
2024/01/14 02:00:58;;;;;;;7.90;4.00;;;;;-3.70;95752.00;;;;5056933;28;20199;-60
2024/01/14 02:03:26;;;;;;;4.77;4.30;;;;;-4.10;95755.00;;;;5056794;28;20211;-61
2024/01/14 02:05:55;;;;;;;3.73;3.43;;;;;-4.00;95745.00;;;;5056622;28;20660;-60
2024/01/14 02:08:23;;;;;;;7.00;4.63;;;;;-4.30;95741.00;;;;5057160;28;20202;-60
2024/01/14 02:10:50;;;;;;;4.97;4.53;;;;;-4.40;95736.00;;;;5058426;28;20191;-61
2024/01/14 02:13:18;;;;;;;3.67;3.37;;;;;-4.60;95744.00;;;;5058504;28;20237;-60
2024/01/14 02:15:45;;;;;;;7.23;4.17;;;;;-4.50;95730.00;;;;5057269;28;20290;-60
2024/01/14 02:18:14;;;;;;;8.53;4.77;;;;;-4.50;95723.00;;;;5056549;28;20217;-60
2024/01/14 02:20:41;;;;;;;4.80;4.13;;;;;-4.60;95728.00;;;;5056843;28;20209;-60
2024/01/14 02:23:12;;;;;;;5.17;3.50;;;;;-4.60;95722.00;;;;5056507;28;20214;-60
2024/01/14 02:25:41;;;;;;;3.50;3.27;;;;;-4.60;95731.00;;;;5056378;28;20267;-60
2024/01/14 02:28:09;;;;;;;7.20;5.00;;;;;-4.40;95726.00;;;;5056538;28;20209;-60
2024/01/14 02:30:39;;;;;;;5.30;4.80;;;;;-4.40;95721.00;;;;5056262;28;20198;-60
2024/01/14 02:33:06;;;;;;;6.30;4.27;;;;;-4.50;95716.00;;;;5056375;28;20713;-60
2024/01/14 02:35:37;;;;;;;7.07;5.20;;;;;-4.40;95725.00;;;;5056366;28;20573;-60
2024/01/14 02:38:04;;;;;;;5.80;4.10;;;;;-4.20;95714.00;;;;5056197;28;20677;-61
2024/01/14 02:40:33;;;;;;;12.90;4.87;;;;;-4.10;95711.00;;;;5055804;28;20202;-61
2024/01/14 02:43:02;;;;;;;4.43;4.03;;;;;-4.10;95720.00;;;;5056037;28;20683;-61
2024/01/14 02:45:31;;;;;;;7.93;4.77;;;;;-4.10;95698.00;;;;5056486;28;20648;-61
2024/01/14 02:47:58;;;;;;;10.63;5.20;;;;;-4.00;95703.00;;;;5056081;28;20191;-61
2024/01/14 02:50:26;;;;;;;4.13;3.63;;;;;-4.00;95706.00;;;;5056118;28;20525;-61
2024/01/14 02:52:54;;;;;;;6.63;4.80;;;;;-4.10;95709.00;;;;5055681;28;20218;-61
2024/01/14 02:55:21;;;;;;;3.33;3.03;;;;;-4.10;95707.00;;;;5055053;28;20225;-61
2024/01/14 02:57:49;;;;;;;4.30;3.93;;;;;-4.20;95709.00;;;;5057772;28;20203;-61
2024/01/14 03:00:18;;;;;;;3.57;3.27;;;;;-4.30;95709.00;;;;5057820;28;20198;-60
2024/01/14 03:02:46;;;;;;;5.37;4.83;;;;;-4.40;95703.00;;;;5056470;28;20217;-60
2024/01/14 03:05:13;;;;;;;6.57;4.63;;;;;-4.40;95698.00;;;;5055747;28;20195;-61
2024/01/14 03:07:41;;;;;;;5.27;4.73;;;;;-4.30;95705.00;;;;5055053;28;20203;-61
2024/01/14 03:10:09;;;;;;;3.23;2.23;;;;;-4.20;95690.00;;;;5055350;28;20560;-61
2024/01/14 03:12:36;;;;;;;5.70;4.53;;;;;-4.10;95692.00;;;;5054376;28;20216;-61
2024/01/14 03:15:04;;;;;;;5.83;3.97;;;;;-4.10;95687.00;;;;5055313;28;20561;-61
2024/01/14 03:17:34;;;;;;;4.60;3.87;;;;;-4.00;95700.00;;;;5055787;28;20611;-61
2024/01/14 03:20:02;;;;;;;9.73;4.70;;;;;-3.90;95687.00;;;;5055254;28;20194;-61
2024/01/14 03:22:29;;;;;;;4.37;3.97;;;;;-3.90;95691.00;;;;5055286;28;20651;-60
2024/01/14 03:24:57;;;;;;;4.67;4.23;;;;;-3.90;95684.00;;;;5055542;28;20196;-60
2024/01/14 03:27:24;;;;;;;6.60;3.67;;;;;-4.10;95687.00;;;;5055085;28;20270;-60
2024/01/14 03:29:51;;;;;;;4.57;4.17;;;;;-4.00;95682.00;;;;5055440;28;20678;-61
2024/01/14 03:32:18;;;;;;;4.70;3.40;;;;;-3.90;95688.00;;;;5055016;28;20212;-60
2024/01/14 03:34:47;;;;;;;7.03;4.23;;;;;-3.90;95688.00;;;;5055040;28;20196;-60
2024/01/14 03:37:14;;;;;;;6.37;4.90;;;;;-3.80;95694.00;;;;5054960;28;20230;-60
2024/01/14 03:39:42;;;;;;;2.97;2.77;;;;;-3.90;95689.00;;;;5055089;28;20200;-60
2024/01/14 03:42:10;;;;;;;8.90;3.67;;;;;-4.10;95685.00;;;;5055051;28;20219;-60
2024/01/14 03:44:37;;;;;;;5.67;5.17;;;;;-3.90;95681.00;;;;5055379;28;20195;-60
2024/01/14 03:47:05;;;;;;;11.20;3.83;;;;;-3.90;95686.00;;;;5055842;28;20187;-61
2024/01/14 03:49:32;;;;;;;3.90;3.60;;;;;-3.90;95684.00;;;;5055736;28;20663;-60
2024/01/14 03:52:01;;;;;;;6.00;3.43;;;;;-3.90;95691.00;;;;5054836;28;20211;-60
2024/01/14 03:54:29;;;;;;;6.53;5.07;;;;;-3.90;95684.00;;;;5054499;28;20588;-60
2024/01/14 03:56:56;;;;;;;7.37;3.53;;;;;-4.00;95685.00;;;;5054328;28;20216;-61
2024/01/14 03:59:23;;;;;;;6.27;5.67;;;;;-3.90;95682.00;;;;5054614;28;20187;-61
2024/01/14 04:01:51;;;;;;;5.03;4.57;;;;;-3.90;95676.00;;;;5054612;28;20212;-62
2024/01/14 04:04:18;;;;;;;4.43;3.60;;;;;-3.90;95672.00;;;;5054379;28;20207;-61
2024/01/14 04:06:46;;;;;;;7.77;4.57;;;;;-3.90;95677.00;;;;5054359;28;20564;-61
2024/01/14 04:09:15;;;;;;;4.23;3.73;;;;;-3.90;95676.00;;;;5054463;28;20670;-61
2024/01/14 04:11:43;;;;;;;7.37;5.37;;;;;-4.00;95698.00;;;;5054258;28;20280;-62
2024/01/14 04:14:10;;;;;;;4.97;3.33;;;;;-3.90;95694.00;;;;5054311;28;20191;-61
2024/01/14 04:16:38;;;;;;;4.30;3.87;;;;;-3.90;95688.00;;;;5054057;28;20210;-61
2024/01/14 04:19:06;;;;;;;3.80;3.50;;;;;-3.90;95690.00;;;;5053837;28;20199;-61
2024/01/14 04:21:34;;;;;;;4.87;4.13;;;;;-4.00;95686.00;;;;5054371;28;20548;-61
2024/01/14 04:24:02;;;;;;;3.77;3.17;;;;;-4.10;95694.00;;;;5054025;28;20597;-61
2024/01/14 04:26:31;;;;;;;8.43;5.07;;;;;-4.20;95692.00;;;;5054262;28;20618;-62
2024/01/14 04:28:59;;;;;;;15.20;5.03;;;;;-4.00;95694.00;;;;5054134;28;20195;-61
2024/01/14 04:31:26;;;;;;;5.07;4.33;;;;;-4.20;95691.00;;;;5054025;28;20193;-62
2024/01/14 04:33:55;;;;;;;5.43;4.90;;;;;-4.20;95702.00;;;;5052631;28;20647;-61
2024/01/14 04:36:22;;;;;;;6.70;4.50;;;;;-4.10;95701.00;;;;5054045;28;20254;-61
2024/01/14 04:38:50;;;;;;;6.40;4.13;;;;;-4.30;95694.00;;;;5053913;28;20195;-61
2024/01/14 04:41:17;;;;;;;5.57;4.90;;;;;-4.30;95687.00;;;;5053567;28;20336;-61
2024/01/14 04:43:46;;;;;;;7.13;3.83;;;;;-4.20;95686.00;;;;5053898;28;20223;-61
2024/01/14 04:46:13;;;;;;;6.90;5.47;;;;;-4.40;95700.00;;;;5053930;28;20190;-61
2024/01/14 04:48:41;;;;;;;7.30;5.10;;;;;-4.40;95690.00;;;;5054074;28;20203;-60
2024/01/14 04:51:10;;;;;;;11.33;5.40;;;;;-4.40;95691.00;;;;5053600;28;20214;-60
2024/01/14 04:53:37;;;;;;;5.80;4.47;;;;;-4.40;95705.00;;;;5053826;28;20225;-61
2024/01/14 04:56:08;;;;;;;4.53;4.13;;;;;-4.40;95708.00;;;;5053748;28;20690;-60
2024/01/14 04:58:36;;;;;;;5.93;5.33;;;;;-4.50;95691.00;;;;5053607;28;20544;-60
2024/01/14 05:01:05;;;;;;;8.33;4.50;;;;;-4.40;95704.00;;;;5053931;28;20199;-61
2024/01/14 05:03:32;;;;;;;5.07;4.57;;;;;-4.40;95705.00;;;;5053304;28;20219;-61
2024/01/14 05:06:00;;;;;;;5.87;4.13;;;;;-4.30;95701.00;;;;5053592;28;20649;-60
2024/01/14 05:08:27;;;;;;;7.90;4.43;;;;;-4.20;95709.00;;;;5053339;28;20237;-61
2024/01/14 05:10:55;;;;;;;7.33;4.37;;;;;-4.30;95708.00;;;;5053395;28;20195;-60
2024/01/14 05:13:23;;;;;;;6.90;4.93;;;;;-4.20;95700.00;;;;5053263;28;20221;-60
2024/01/14 05:15:50;;;;;;;3.73;3.43;;;;;-4.30;95692.00;;;;5053163;28;20329;-60
2024/01/14 05:18:21;;;;;;;7.83;6.13;;;;;-4.30;95690.00;;;;5053266;28;20227;-61
2024/01/14 05:20:48;;;;;;;5.10;4.60;;;;;-4.20;95697.00;;;;5053181;28;20202;-61
2024/01/14 05:23:15;;;;;;;10.03;5.50;;;;;-4.20;95695.00;;;;5053107;28;20579;-61
2024/01/14 05:25:43;;;;;;;4.80;4.17;;;;;-4.20;95692.00;;;;5053068;28;20191;-60
2024/01/14 05:28:13;;;;;;;4.17;3.77;;;;;-4.30;95691.00;;;;5053006;28;20208;-60
2024/01/14 05:30:41;;;;;;;8.37;5.00;;;;;-4.30;95689.00;;;;5053167;28;20271;-60
2024/01/14 05:33:08;;;;;;;11.07;5.30;;;;;-4.20;95687.00;;;;5056321;28;20719;-60
2024/01/14 05:35:37;;;;;;;6.97;4.77;;;;;-4.10;95694.00;;;;5057321;28;20199;-61
2024/01/14 05:38:04;;;;;;;8.50;6.47;;;;;-4.20;95688.00;;;;5057034;28;20203;-61
2024/01/14 05:40:32;;;;;;;5.53;4.13;;;;;-4.20;95692.00;;;;5056807;28;20539;-61
2024/01/14 05:42:59;;;;;;;4.53;4.00;;;;;-4.20;95693.00;;;;5057101;28;20210;-60
2024/01/14 05:45:26;;;;;;;4.37;3.93;;;;;-4.20;95693.00;;;;5056903;28;20202;-61
2024/01/14 05:47:54;;;;;;;12.37;5.23;;;;;-4.10;95689.00;;;;5056847;28;20201;-61
2024/01/14 05:50:21;;;;;;;14.77;7.13;;;;;-4.20;95695.00;;;;5058817;28;20615;-61
2024/01/14 05:52:50;;;;;;;6.93;4.67;;;;;-4.30;95694.00;;;;5058826;28;20219;-61
2024/01/14 05:55:18;;;;;;;10.00;7.83;;;;;-4.40;95684.00;;;;5058669;28;20191;-60
2024/01/14 05:57:46;;;;;;;6.50;5.07;;;;;-4.30;95687.00;;;;5058294;28;20689;-60
2024/01/14 06:00:14;;;;;;;5.77;4.53;;;;;-4.20;95692.00;;;;5055471;28;20199;-60
2024/01/14 06:02:42;;;;;;;8.53;5.90;;;;;-4.20;95683.00;;;;5056571;28;20257;-61
2024/01/14 06:05:09;;;;;;;3.50;3.20;;;;;-4.30;95690.00;;;;5056633;28;20281;-61
2024/01/14 06:07:37;;;;;;;7.03;4.83;;;;;-4.40;95700.00;;;;5055292;28;20190;-61
2024/01/14 06:10:06;;;;;;;10.10;4.40;;;;;-4.40;95689.00;;;;5056390;28;20202;-61
2024/01/14 06:12:33;;;;;;;8.27;4.50;;;;;-4.60;95690.00;;;;5056302;28;20705;-61
2024/01/14 06:15:01;;;;;;;11.60;5.20;;;;;-5.00;95687.00;;;;5056463;28;20200;-61
2024/01/14 06:17:28;;;;;;;5.53;5.00;;;;;-5.00;95690.00;;;;5056610;28;20225;-61
2024/01/14 06:19:56;;;;;;;4.47;3.97;;;;;-4.80;95685.00;;;;5056394;28;20580;-61
2024/01/14 06:22:23;;;;;;;13.17;4.83;;;;;-4.70;95679.00;;;;5056229;28;20317;-60
2024/01/14 06:24:51;;;;;;;11.50;6.13;;;;;-4.60;95687.00;;;;5058300;28;20198;-60
2024/01/14 06:27:19;;;;;;;4.83;4.13;;;;;-4.60;95675.00;;;;5057753;28;20190;-60
2024/01/14 06:29:47;;;;;;;5.10;4.57;;;;;-4.60;95675.00;;;;5057760;28;20200;-60
2024/01/14 06:32:14;;;;;;;3.80;3.57;;;;;-4.80;95683.00;;;;5056511;28;20222;-60
2024/01/14 06:34:42;;;;;;;15.17;4.37;;;;;-5.10;95680.00;;;;5055925;28;20201;-62
2024/01/14 06:37:10;;;;;;;7.40;4.63;;;;;-5.10;95670.00;;;;5056075;28;20246;-61
2024/01/14 06:39:37;;;;;;;12.53;4.33;;;;;-4.80;95674.00;;;;5055806;28;20220;-60
2024/01/14 06:42:05;;;;;;;13.13;5.40;;;;;-4.80;95677.00;;;;5055680;28;20224;-60
2024/01/14 06:44:34;;;;;;;13.30;5.10;;;;;-4.90;95669.00;;;;5055897;28;20190;-60
2024/01/14 06:47:01;;;;;;;7.80;5.50;;;;;-4.80;95681.00;;;;5055799;28;20186;-61
2024/01/14 06:49:29;;;;;;;7.00;4.97;;;;;-4.80;95675.00;;;;5055974;28;20237;-60
2024/01/14 06:51:56;;;;;;;8.60;4.57;;;;;-4.80;95666.00;;;;5055759;28;20737;-60
2024/01/14 06:54:24;;;;;;;5.67;5.17;;;;;-4.90;95663.00;;;;5055885;28;20208;-60
2024/01/14 06:56:51;;;;;;;7.03;5.03;;;;;-5.10;95647.00;;;;5055881;28;20686;-60
2024/01/14 06:59:20;;;;;;;8.93;6.27;;;;;-5.00;95649.00;;;;5055784;28;20196;-61
2024/01/14 07:01:49;;;;;;;5.17;4.47;;;;;-4.80;95652.00;;;;5055508;28;20221;-61
2024/01/14 07:04:17;;;;;;;5.90;4.27;;;;;-4.80;95657.00;;;;5054334;28;20230;-61
2024/01/14 07:06:44;;;;;;;6.90;5.00;;;;;-4.80;95644.00;;;;5055573;28;20199;-61
2024/01/14 07:09:12;;;;;;;9.57;3.87;;;;;-4.80;95640.00;;;;5055618;28;20194;-60
2024/01/14 07:11:40;;;;;;;9.17;5.40;;;;;-4.80;95625.00;;;;5053952;28;20208;-60
2024/01/14 07:14:07;;;;;;;9.80;5.97;;;;;-4.80;95633.00;;;;5055327;28;20690;-60
2024/01/14 07:16:35;;;;;;;8.73;6.83;;;;;-4.90;95635.00;;;;5055339;28;20226;-61
2024/01/14 07:19:04;;;;;;;5.37;4.77;;;;;-5.20;95630.00;;;;5055911;28;20190;-61
2024/01/14 07:21:31;;;;;;;6.47;4.73;;;;;-5.40;95627.00;;;;5055278;28;20215;-62
2024/01/14 07:23:59;;;;;;;13.20;6.17;;;;;-5.40;95632.00;;;;5055266;28;20224;-60
2024/01/14 07:26:27;;;;;;;7.30;4.07;;;;;-5.30;95632.00;;;;5055347;28;20239;-60
2024/01/14 07:28:54;;;;;;;7.60;5.40;;;;;-5.10;95625.00;;;;5055372;28;20197;-60
2024/01/14 07:31:22;;;;;;;5.57;4.57;;;;;-4.70;95625.00;;;;5054204;28;20193;-60
2024/01/14 07:33:50;;;;;;;5.90;3.67;;;;;-5.00;95631.00;;;;5055432;28;20276;-60
2024/01/14 07:36:19;;;;;;;7.27;6.37;;;;;-5.30;95622.00;;;;5054969;28;20247;-60
2024/01/14 07:38:46;;;;;;;5.47;3.40;;;;;-5.10;95625.00;;;;5054891;28;20193;-60
2024/01/14 07:41:17;;;;;;;3.80;2.93;;;;;-5.30;95618.00;;;;5055078;28;20206;-60
2024/01/14 07:43:45;;;;;;;5.57;3.93;;;;;-5.70;95620.00;;;;5054635;28;20291;-60
2024/01/14 07:46:13;;;;;;;5.17;4.73;;;;;-5.70;95621.00;;;;5054746;28;20630;-60
2024/01/14 07:48:41;;;;;;;3.53;3.30;;;;;-5.60;95615.00;;;;5054641;28;20190;-60
2024/01/14 07:51:08;;;;;;;7.77;5.13;;;;;-5.50;95626.00;;;;5054561;28;20299;-60
2024/01/14 07:53:37;;;;;;;3.30;2.77;;;;;-5.30;95607.00;;;;5054864;28;20239;-60
2024/01/14 07:56:05;;;;;;;4.60;4.13;;;;;-5.90;95625.00;;;;5053936;28;20239;-62
2024/01/14 07:58:33;;;;;;;7.90;4.70;;;;;-6.00;95611.00;;;;5054868;28;20217;-62
2024/01/14 08:01:01;;;;;;;7.57;2.70;;;;;-6.00;95615.00;;;;5054310;28;20197;-60
2024/01/14 08:03:28;;;;;;;2.60;2.47;;;;;-5.60;95610.00;;;;5054213;28;20572;-61
2024/01/14 08:05:56;;;;;;;9.47;5.23;;;;;-6.00;95605.00;;;;5054785;28;20668;-61
2024/01/14 08:08:23;;;;;;;6.23;4.20;;;;;-6.10;95599.00;;;;5054206;28;20188;-60
2024/01/14 08:10:52;;;;;;;3.27;2.97;;;;;-6.40;95603.00;;;;5054576;28;20652;-60
2024/01/14 08:13:19;;;;;;;2.97;2.77;;;;;-6.20;95586.00;;;;5054393;28;20261;-60
2024/01/14 08:15:47;;;;;;;5.83;4.03;;;;;-6.20;95588.00;;;;5054341;28;20189;-61
2024/01/14 08:18:14;;;;;;;4.80;3.93;;;;;-5.90;95585.00;;;;5054014;28;20219;-61
2024/01/14 08:20:42;;;;;;;6.50;5.07;;;;;-5.70;95576.00;;;;5054212;28;20192;-61
2024/01/14 08:23:09;;;;;;;5.97;5.33;;;;;-5.90;95580.00;;;;5054013;28;20715;-61
2024/01/14 08:25:37;;;;;;;6.47;3.83;;;;;-5.70;95568.00;;;;5053890;28;20203;-61
2024/01/14 08:28:06;;;;;;;3.60;3.30;;;;;-5.60;95563.00;;;;5053767;28;20223;-61
2024/01/14 08:30:33;;;;;;;6.33;5.70;;;;;-6.20;95557.00;;;;5053974;28;20564;-61
2024/01/14 08:33:01;;;;;;;6.73;5.13;;;;;-6.20;95555.00;;;;5054123;28;20219;-61
2024/01/14 08:35:29;;;;;;;11.77;6.33;;;;;-5.90;95562.00;;;;5054416;28;20196;-61
2024/01/14 08:37:56;;;;;;;3.70;3.30;;;;;-5.50;95542.00;;;;5053806;28;20217;-61
2024/01/14 08:40:24;;;;;;;4.67;3.70;;;;;-5.80;95553.00;;;;5053852;28;20193;-61
2024/01/14 08:42:51;;;;;;;3.17;2.73;;;;;-5.90;95555.00;;;;5052790;28;20220;-61
2024/01/14 08:45:20;;;;;;;7.57;4.40;;;;;-5.70;95552.00;;;;5053628;28;20202;-61
2024/01/14 08:47:48;;;;;;;3.80;3.47;;;;;-5.80;95547.00;;;;5053694;28;20191;-61
2024/01/14 08:50:15;;;;;;;3.43;3.13;;;;;-5.80;95548.00;;;;5053675;28;20664;-61
2024/01/14 08:52:43;;;;;;;10.03;5.33;;;;;-5.50;95541.00;;;;5053715;28;20212;-61
2024/01/14 08:55:11;;;;;;;3.93;3.63;;;;;-5.20;95541.00;;;;5053393;28;20192;-61
2024/01/14 08:57:39;;;;;;;7.17;3.77;;;;;-5.60;95533.00;;;;5053492;28;20216;-61
2024/01/14 09:00:08;;;;;;;6.03;3.20;;;;;-5.40;95538.00;;;;5053815;28;20322;-61
2024/01/14 09:02:37;;;;;;;6.87;4.90;;;;;-5.50;95542.00;;;;5053067;28;20233;-61
2024/01/14 09:05:06;;;;;;;5.10;4.03;;;;;-5.30;95526.00;;;;5053104;28;20204;-61
2024/01/14 09:07:34;;;;;;;10.07;5.53;;;;;-5.10;95533.00;;;;5051749;28;20248;-61
2024/01/14 09:10:01;;;;;;;7.10;4.70;;;;;-5.20;95518.00;;;;5053173;28;20691;-61
2024/01/14 09:12:29;;;;;;;7.07;5.13;;;;;-4.90;95517.00;;;;5053383;28;20218;-61
2024/01/14 09:14:56;;;;;;;4.37;3.63;;;;;-4.80;95514.00;;;;5054963;28;20194;-61
2024/01/14 09:17:24;;;;;;;7.43;6.33;;;;;-4.60;95518.00;;;;5054902;28;20232;-61
2024/01/14 09:19:53;;;;;;;12.53;4.43;;;;;-4.50;95518.00;;;;5053918;28;20197;-61
2024/01/14 09:22:20;;;;;;;5.57;4.63;;;;;-4.20;95515.00;;;;5053491;28;20701;-61
2024/01/14 09:24:47;;;;;;;4.63;3.57;;;;;-4.20;95522.00;;;;5053026;28;20201;-61
2024/01/14 09:27:15;;;;;;;9.33;4.67;;;;;-4.30;95525.00;;;;5053394;28;20195;-61
2024/01/14 09:29:43;;;;;;;11.47;6.13;;;;;-4.60;95515.00;;;;5053447;28;20197;-61
2024/01/14 09:32:10;;;;;;;17.73;4.00;;;;;-4.30;95510.00;;;;5052821;28;20214;-61
2024/01/14 09:34:39;;;;;;;6.20;2.77;;;;;-4.30;95504.00;;;;5053521;28;20197;-61
2024/01/14 09:37:08;;;;;;;7.83;4.43;;;;;-4.20;95500.00;;;;5052712;28;20223;-60
2024/01/14 09:39:36;;;;;;;10.03;4.00;;;;;-3.80;95505.00;;;;5052827;28;20202;-61
2024/01/14 09:42:09;;;;;;;3.63;3.33;;;;;-3.70;95503.00;;;;5051760;28;20236;-61
2024/01/14 09:44:37;;;;;;;6.50;5.03;;;;;-3.80;95508.00;;;;5054398;28;20191;-60
2024/01/14 09:47:08;;;;;;;6.63;3.73;;;;;-3.30;95502.00;;;;5055061;28;20228;-60
2024/01/14 09:49:36;;;;;;;4.77;3.43;;;;;-3.20;95503.00;;;;5054418;28;20191;-59
2024/01/14 09:52:05;;;;;;;8.40;4.10;;;;;-3.30;95508.00;;;;5053204;28;20683;-61
2024/01/14 09:54:34;;;;;;;5.67;4.20;;;;;-3.20;95487.00;;;;5052739;28;20219;-61
2024/01/14 09:57:06;;;;;;;4.50;4.10;;;;;-3.30;95488.00;;;;5052745;28;20218;-61
2024/01/14 09:59:35;;;;;;;9.43;4.67;;;;;-3.00;95468.00;;;;5053114;28;20185;-61
2024/01/14 10:02:03;;;;;;;8.53;4.30;;;;;-2.50;95475.00;;;;5052511;28;20579;-62
2024/01/14 10:04:31;;;;;;;4.67;4.23;;;;;-2.50;95481.00;;;;5052529;28;20207;-61
2024/01/14 10:06:59;;;;;;;3.60;3.30;;;;;-2.40;95481.00;;;;5052735;28;20192;-61
2024/01/14 10:09:27;;;;;;;11.60;3.77;;;;;-2.40;95473.00;;;;5052584;28;20188;-61
2024/01/14 10:11:56;;;;;;;5.13;3.97;;;;;-2.50;95478.00;;;;5052566;28;20208;-61
2024/01/14 10:14:26;;;;;;;4.80;4.33;;;;;-3.00;95471.00;;;;5052539;28;20282;-61
2024/01/14 10:16:55;;;;;;;5.93;4.87;;;;;-2.80;95464.00;;;;5052384;28;20199;-61
2024/01/14 10:19:23;;;;;;;4.80;4.40;;;;;-2.50;95454.00;;;;5056359;28;20223;-61
2024/01/14 10:21:52;;;;;;;5.30;3.40;;;;;-2.20;95444.00;;;;5056104;28;20220;-62
2024/01/14 10:24:20;;;;;;;4.77;4.23;;;;;-2.20;95437.00;;;;5055958;28;20227;-61
2024/01/14 10:26:47;;;;;;;4.17;3.77;;;;;-1.80;95443.00;;;;5056034;28;20651;-61
2024/01/14 10:29:16;;;;;;;5.93;4.23;;;;;-1.50;95438.00;;;;5056241;28;20652;-61
2024/01/14 10:31:45;;;;;;;4.40;4.03;;;;;-1.40;95434.00;;;;5056258;28;20241;-61
2024/01/14 10:34:12;;;;;;;4.80;4.33;;;;;-1.50;95442.00;;;;5055939;28;20193;-61
2024/01/14 10:36:39;;;;;;;6.27;5.63;;;;;-1.50;95431.00;;;;5055877;28;20196;-61
2024/01/14 10:39:10;;;;;;;8.20;2.77;;;;;-1.40;95415.00;;;;5055526;28;20238;-61
2024/01/14 10:41:38;;;;;;;5.60;4.03;;;;;-1.50;95419.00;;;;5055568;28;20216;-61
2024/01/14 10:44:06;;;;;;;6.20;4.17;;;;;-1.70;95416.00;;;;5055730;28;20191;-62
2024/01/14 10:46:37;;;;;;;4.03;3.63;;;;;-1.70;95405.00;;;;5055732;28;20679;-62
2024/01/14 10:49:07;;;;;;;10.93;3.83;;;;;-1.50;95400.00;;;;5054495;28;20575;-61
2024/01/14 10:51:40;;;;;;;4.37;3.80;;;;;-1.10;95395.00;;;;5056363;28;20185;-61
2024/01/14 10:54:17;;;;;;;4.00;3.60;;;;;-1.10;95390.00;;;;5055482;28;20184;-61
2024/01/14 10:56:52;;;;;;;4.43;3.93;;;;;-1.20;95394.00;;;;5055627;28;20188;-61
2024/01/14 10:59:26;;;;;;;6.93;3.60;;;;;-0.90;95386.00;;;;5055757;28;20235;-61
2024/01/14 11:01:59;;;;;;;7.87;5.00;;;;;-0.60;95381.00;;;;5055306;28;20212;-61
2024/01/14 11:04:28;;;;;;;5.30;4.47;;;;;-0.10;95377.00;;;;5055317;28;20192;-61
2024/01/14 11:06:56;;;;;;;7.30;4.27;;;;;0.20;95367.00;;;;5054451;28;20198;-61
2024/01/14 11:09:23;;;;;;;3.80;3.23;;;;;0.40;95360.00;;;;5055819;28;20193;-61
2024/01/14 11:11:56;;;;;;;4.67;4.17;;;;;0.60;95351.00;;;;5054100;28;20217;-61
2024/01/14 11:14:29;;;;;;;2.90;2.70;;;;;1.00;95338.00;;;;5055621;28;20190;-62
2024/01/14 11:17:07;;;;;;;3.90;3.33;;;;;1.50;95332.00;;;;5055852;28;20200;-65
2024/01/14 11:19:38;;;;;;;6.07;4.20;;;;;2.10;95320.00;;;;5054073;28;20227;-62
2024/01/14 11:22:20;;;;;;;5.87;5.00;;;;;2.40;95310.00;;;;5055134;28;20226;-62
2024/01/14 11:24:48;;;;;;;5.10;4.57;;;;;2.80;95301.00;;;;5055505;28;20560;-64
2024/01/14 11:27:16;;;;;;;6.43;3.23;;;;;3.30;95288.00;;;;5055062;28;20201;-64
2024/01/14 11:29:44;;;;;;;4.73;3.87;;;;;4.40;95278.00;;;;5052597;28;20194;-62
2024/01/14 11:32:14;;;;;;;5.03;4.53;;;;;4.80;95285.00;;;;5055167;28;20218;-61
2024/01/14 11:34:54;;;;;;;2.47;2.27;;;;;5.50;95272.00;;;;5055149;28;20199;-61
2024/01/14 11:37:42;;;;;;;4.50;3.70;;;;;6.10;95257.00;;;;5054931;28;20195;-61
2024/01/14 11:40:16;;;;;;;15.13;4.90;;;;;7.10;95255.00;;;;5054944;28;20203;-61
2024/01/14 11:42:50;;;;;;;5.00;3.90;;;;;7.80;95261.00;;;;5054638;28;20230;-61
2024/01/14 11:45:40;;;;;;;5.00;3.67;;;;;8.30;95260.00;;;;5054908;28;20190;-62
2024/01/14 11:48:12;;;;;;;5.03;4.53;;;;;8.70;95251.00;;;;5054491;28;20181;-61
2024/01/14 11:50:40;;;;;;;10.63;3.80;;;;;9.00;95250.00;;;;5054763;28;20223;-61
2024/01/14 11:53:09;;;;;;;6.30;4.27;;;;;9.20;95236.00;;;;5053016;28;20242;-62
2024/01/14 11:55:37;;;;;;;4.83;4.13;;;;;9.50;95242.00;;;;5054427;28;20571;-61
2024/01/14 11:58:14;;;;;;;5.33;4.83;;;;;10.40;95230.00;;;;5052967;28;20262;-61
2024/01/14 12:00:42;;;;;;;11.43;5.60;;;;;11.20;95221.00;;;;5054307;28;20233;-61
2024/01/14 12:03:13;;;;;;;8.43;4.33;;;;;13.00;95224.00;;;;5054459;28;20717;-61
2024/01/14 12:05:42;;;;;;;8.73;5.57;;;;;12.90;95208.00;;;;5054148;28;20544;-61
2024/01/14 12:08:09;;;;;;;4.87;3.63;;;;;13.50;95206.00;;;;5054045;28;20188;-61
2024/01/14 12:10:37;;;;;;;3.77;3.43;;;;;13.40;95203.00;;;;5054178;28;20196;-61
2024/01/14 12:13:06;;;;;;;4.87;3.57;;;;;14.30;95201.00;;;;5055718;28;20240;-61
2024/01/14 12:15:34;;;;;;;5.47;4.53;;;;;14.50;95201.00;;;;5057196;28;20275;-61
2024/01/14 12:18:02;;;;;;;8.70;5.13;;;;;14.70;95201.00;;;;5056011;28;20215;-61
2024/01/14 12:20:31;;;;;;;8.00;5.07;;;;;15.50;95188.00;;;;5054428;28;20204;-61